WetterOnline ( https://www.wetteronline.at )

Wetter aktuell Fehmarn

Aktuelles Wetter: Westermarkelsdorf (9m)

6-stündlich | Neueste Meldungen
Ortszeit Temperatur Wetter
Di, 10.12. 7:00 5.9° C wolkenlos
Di, 10.12. 1:00 6.2° C wolkenlos
Mo, 09.12. 19:00 7.1° C wolkig
Mo, 09.12. 13:00 7.4° C bewölkt
Mo, 09.12. 7:00 6.4° C wolkig
Mo, 09.12. 1:00 6.9° C wolkig
So, 08.12. 19:00 8.2° C leicht bewölkt
So, 08.12. 13:00 8.7° C bedeckt
Ortszeit Temperatur Wetter
Di, 10.12. 11:30 5.6° C wolkig
Di, 10.12. 11:20 5.6° C wolkig
Di, 10.12. 11:10 5.6° C wolkig
Di, 10.12. 11:00 5.6° C fast wolkenlos
Di, 10.12. 10:50 5.6° C fast wolkenlos
Di, 10.12. 10:40 5.7° C wolkenlos
Di, 10.12. 10:30 5.5° C fast wolkenlos
Di, 10.12. 10:00 5.6° C leicht bewölkt
Di, 10.12. 9:30 5.8° C wolkig
Di, 10.12. 9:00 5.6° C wolkenlos
Di, 10.12. 8:30 5.6° C wolkenlos
Ortszeit Relative Feuchte Sichtweite
Di, 10.12. 7:00 72% 35 km
Di, 10.12. 1:00 67% 55 km
Mo, 09.12. 19:00 71% 26 km
Mo, 09.12. 13:00 78% 40 km
Mo, 09.12. 7:00 80% 35 km
Mo, 09.12. 1:00 78% 40 km
So, 08.12. 19:00 81% 25 km
So, 08.12. 13:00 91% 24 km
Ortszeit Relative Feuchte Sichtweite
Di, 10.12. 11:30 80% 35 km
Di, 10.12. 11:20 80% -
Di, 10.12. 11:10 80% -
Di, 10.12. 11:00 80% 30 km
Di, 10.12. 10:50 80% -
Di, 10.12. 10:40 80% -
Di, 10.12. 10:30 82% 30 km
Di, 10.12. 10:00 78% 30 km
Di, 10.12. 9:30 78% 30 km
Di, 10.12. 9:00 77% 35 km
Di, 10.12. 8:30 75% 30 km
Ortszeit Niederschlagsmenge Niederschlagsart
Di, 10.12. 7:00 0.0 l/m2 in 12 Std. -
Di, 10.12. 1:00 0.0 l/m2 in 6 Std. -
Mo, 09.12. 19:00 0.7 l/m2 in 12 Std. Regen
Mo, 09.12. 13:00 0.1 l/m2 in 6 Std. Regen
Mo, 09.12. 7:00 0.1 l/m2 in 12 Std. -
Mo, 09.12. 1:00 0.1 l/m2 in 6 Std. Regen
So, 08.12. 19:00 0.6 l/m2 in 12 Std. Regen
So, 08.12. 13:00 0.2 l/m2 in 6 Std. Regen
Ortszeit Niederschlagsmenge Niederschlagsart
Di, 10.12. 11:30 0.0 l/m2 in 1 Std. -
Di, 10.12. 11:20 keine Meldung -
Di, 10.12. 11:10 keine Meldung -
Di, 10.12. 11:00 0.0 l/m2 in 1 Std. -
Di, 10.12. 10:50 keine Meldung -
Di, 10.12. 10:40 keine Meldung -
Di, 10.12. 10:30 0.0 l/m2 in 1 Std. -
Di, 10.12. 10:00 0.0 l/m2 in 1 Std. -
Di, 10.12. 9:30 0.0 l/m2 in 1 Std. -
Di, 10.12. 9:00 0.0 l/m2 in 1 Std. -
Di, 10.12. 8:30 0.0 l/m2 in 1 Std. -
Ortszeit Stärke Spitze Richtung
km/h Bft. km/h Grad Sektor
Di, 10.12. 7:00 30 5 56 300° NW
Di, 10.12. 1:00 46 6 69 300° NW
Mo, 09.12. 19:00 43 6 58 290° W
Mo, 09.12. 13:00 35 5 52 240° SW
Mo, 09.12. 7:00 33 5 57 230° SW
Mo, 09.12. 1:00 32 5 61 230° SW
So, 08.12. 19:00 41 6 70 240° SW
So, 08.12. 13:00 35 5 61 220° SW
Ortszeit Stärke Spitze Richtung
km/h Bft. km/h Grad Sektor
Di, 10.12. 11:30 26 4 31 260° W
Di, 10.12. 11:20 26 4 - 260° W
Di, 10.12. 11:10 26 4 - 260° W
Di, 10.12. 11:00 24 4 31 260° W
Di, 10.12. 10:50 24 4 - 260° W
Di, 10.12. 10:40 26 4 - 270° W
Di, 10.12. 10:30 28 4 31 260° W
Di, 10.12. 10:00 24 4 33 270° W
Di, 10.12. 9:30 24 4 30 290° W
Di, 10.12. 9:00 22 4 31 290° W
Di, 10.12. 8:30 25 4 32 290° W
Ortszeit Untergrenze Bedeckung Gattung
total tief tief mittel hoch
Di, 10.12. 7:00 - 0/8 0/8 - - -
Di, 10.12. 1:00 - 0/8 0/8 - - -
Mo, 09.12. 19:00 4500 m 6/8 3/8 - - -
Mo, 09.12. 13:00 720 m 8/8 7/8 - - -
Mo, 09.12. 7:00 630 m 5/8 4/8 - - -
Mo, 09.12. 1:00 5400 m 5/8 7/8 - - -
So, 08.12. 19:00 690 m 4/8 4/8 - - -
So, 08.12. 13:00 390 m 8/8 8/8 - - -
Ortszeit Bedeckungsgrad in Achtel und Wolkenuntergrenze
Di, 10.12. 11:30 7(7500m)
Di, 10.12. 11:20 7(7500m)
Di, 10.12. 11:10 6(7500m) 7(8400m)
Di, 10.12. 11:00 2(8400m) 5(8400m)
Di, 10.12. 10:50 2(8400m)
Di, 10.12. 10:40 keine Wolken
Di, 10.12. 10:30 2(10500m)
Di, 10.12. 10:00 2(6000m)
Di, 10.12. 9:30 5(6300m)
Di, 10.12. 9:00 keine Wolken
Di, 10.12. 8:30 keine Wolken
Ortszeit Luftdruck NN (hPa) Tendenz (hPa in 3 Std.)
Di, 10.12. 7:00 1018 + 3,7
Di, 10.12. 1:00 1010 + 5,0
Mo, 09.12. 19:00 1000 + 3,8
Mo, 09.12. 13:00 993 + 0,7
Mo, 09.12. 7:00 991 + 0,5
Mo, 09.12. 1:00 991 - 0,2
So, 08.12. 19:00 991 + 0,8
So, 08.12. 13:00 991 - 3,1
Ortszeit Luftdruck NN (hPa) Tendenz (hPa in 3 Std.)
Di, 10.12. 11:30 1021 + 1,4
Di, 10.12. 11:20 1021 keine Meldung
Di, 10.12. 11:10 1021 keine Meldung
Di, 10.12. 11:00 1020 + 1,6
Di, 10.12. 10:50 1020 keine Meldung
Di, 10.12. 10:40 1020 keine Meldung
Di, 10.12. 10:30 1020 + 1,9
Di, 10.12. 10:00 1020 + 2,3
Di, 10.12. 9:30 1020 + 2,5
Di, 10.12. 9:00 1020 + 2,8
Di, 10.12. 8:30 1019 + 3,1
Ortszeit Schneehöhe (cm)
Di, 10.12. 7:00 0
Di, 10.12. 1:00 0
Mo, 09.12. 19:00 0
Mo, 09.12. 13:00 0
Mo, 09.12. 7:00 0
Mo, 09.12. 1:00 0
So, 08.12. 19:00 0
So, 08.12. 13:00 0
Ortszeit Schneehöhe (cm)
Di, 10.12. 11:30 0
Di, 10.12. 11:20 0
Di, 10.12. 11:10 0
Di, 10.12. 11:00 0
Di, 10.12. 10:50 0
Di, 10.12. 10:40 0
Di, 10.12. 10:30 0
Di, 10.12. 10:00 0
Di, 10.12. 9:30 0
Di, 10.12. 9:00 0
Di, 10.12. 8:30 0
Link zu dieser Seite / Seite empfehlen

Das Wetter in ...